Tiflis, Georgia

01:34 PM +04 am 29. Mai 2017 (GMT +0400)
Tbilisi International Air | | Change Station

Höhe 1624 ft 41.67 °N, 44.95 °E | Updated 4 minutes ago

Heiter
Heiter
77 °F
gefühlte 77 °F
N
10
Wind Wechselnd Wind aus Ost-Südost

Heute
Max. -- | schwach -- °F
--% Regenrisiko
Gestern
Max. -- | schwach -- °F
Precip. -- inch
Druck 30.15 inch
Sichtweite 6.2 Meilen
Wolken Few 4800 ft
Taupunkt 57 °F
Feuchtigkeit 50%
Regen 0.00 inch
Schneehöhe Nicht verfügbar..
5:29 AM 8:25 PM
Erstes Viertel, 18% visible
METAR UGTB 290930Z 11009KT 070V150 9999 FEW048 25/14 Q1021 R13R/CLRD70 NOSIG
Druck 30.15 inch
Sichtweite 6.2 Meilen
Wolken Few 4800 ft
Taupunkt 57 °F
Feuchtigkeit 50%
Regen 0.00 inch
Schneehöhe Nicht verfügbar..
5:29 AM 8:25 PM
Erstes Viertel, 18% visible
METAR UGTB 290930Z 11009KT 070V150 9999 FEW048 25/14 Q1021 R13R/CLRD70 NOSIG

Get Severe Weather Alerts

Thanks for signing up!

Be on the lookout for a verification email in your inbox.

You'll start receiving the daily forecast at 6 AM.

×

10-Day Weather Forecast

×

Almanac

Astronomie

May. 29, 2017 Aufgang Untergang
Genaue Zeit
Bürgerliche Dämmerung
Nautische Dämmerung
Astronomische Dämmerung
Mond
Länge des sichtbaren Lichts
Tageslänge
Tomorrow will be .
, % of the Moon is Illuminated

Heutige Rekorde

Country Highs Country Lows

Community

WunderPhotos

Category 6

Welcome to Category 6. This is the collective home for Weather Underground's featured writeups by Dr. Jeff Masters (right), Bob Henson (left), Chris Burt, and other regular contributors.

Nearby

Luftqualität

  Luftqualität LQ Index Schadstoff
Not available.

Schneehöhe

Station Depth Höhe

Erdbebenaktivität

Stadt Distance Mag. Time & Date
Minimum magnitude displayed is 2.5.

küstennahe Wassertemperaturen

Ort Temperatur

Stations

Wetterstationen in der Umgebung

Stationsstandort Temp. Windchill Taupunkt Feuchtigkeit Wind Precip. Höhe Aktualisiert Art